Time;durP1;ratioP1;P1;durP2;ratioP2;P2;SDS_P1;SDS_P2;PMS_P1;PMS_P2;Temp;Humidity;BMP_temperature;BMP_pressure;BME280_temperature;BME280_humidity;BME280_pressure;Samples;Min_cycle;Max_cycle;Signal;HPM_P1;HPM_P2
2022/01/14 00:01:26;;;;;;;2.17;1.10;;;;;;;;;;6290522;28;20280;-81
2022/01/14 00:04:30;;;;;;;0.80;0.80;;;;;;;;;;6289819;28;20478;-81
2022/01/14 00:07:36;;;;;;;0.90;0.90;;;;;;;;;;6290501;28;20237;-81
2022/01/14 00:10:47;;;;;;;3.17;0.90;;;;;;;;;;6290058;28;20231;-81
2022/01/14 00:13:58;;;;;;;1.07;1.07;;;;;;;;;;6290190;28;20187;-81
2022/01/14 00:17:03;;;;;;;0.97;0.87;;;;;;;;;;6290434;28;20231;-81
2022/01/14 00:20:11;;;;;;;1.60;0.90;;;;;;;;;;6289767;28;20287;-79
2022/01/14 00:23:19;;;;;;;1.00;0.93;;;;;;;;;;6289544;28;20244;-81
2022/01/14 00:33:08;;;;;;;2.37;1.10;;;;;;;;;;6272772;28;20245;-81
2022/01/14 00:36:12;;;;;;;2.83;1.10;;;;;;;;;;6289208;28;20479;-81
2022/01/14 00:39:17;;;;;;;2.20;1.00;;;;;;;;;;6290488;28;20215;-81
2022/01/14 00:42:22;;;;;;;1.13;1.13;;;;;;;;;;6289190;28;20314;-79
2022/01/14 00:45:26;;;;;;;1.40;1.20;;;;;;;;;;6270742;28;20422;-81
2022/01/14 00:48:30;;;;;;;2.90;1.20;;;;;;;;;;6289658;28;20191;-81
2022/01/14 00:51:35;;;;;;;1.97;1.00;;;;;;;;;;6288983;28;20426;-79
2022/01/14 00:54:41;;;;;;;1.50;1.20;;;;;;;;;;6289554;28;20215;-82
2022/01/14 01:01:07;;;;;;;1.63;0.70;;;;;;;;;;6314442;28;20230;-81
2022/01/14 01:04:13;;;;;;;2.87;1.07;;;;;;;;;;6314562;28;20382;-81
2022/01/14 01:07:18;;;;;;;2.17;1.00;;;;;;;;;;6313751;28;20257;-80
2022/01/14 01:10:24;;;;;;;1.30;1.20;;;;;;;;;;6314106;28;20230;-81
2022/01/14 01:13:33;;;;;;;1.10;1.10;;;;;;;;;;6296905;28;20199;-80
2022/01/14 01:16:37;;;;;;;1.03;0.97;;;;;;;;;;6313809;28;20234;-80
2022/01/14 01:19:42;;;;;;;1.37;0.93;;;;;;;;;;6313395;28;20214;-81
2022/01/14 01:22:48;;;;;;;0.80;0.80;;;;;;;;;;6314538;28;20186;-80
2022/01/14 01:26:15;;;;;;;1.00;1.00;;;;;;;;;;6295547;28;20526;-80
2022/01/14 01:29:43;;;;;;;3.10;1.10;;;;;;;;;;6314167;28;20209;-81
2022/01/14 01:32:48;;;;;;;4.30;1.00;;;;;;;;;;6288265;28;20242;-80
2022/01/14 01:35:53;;;;;;;1.17;1.17;;;;;;;;;;6288529;28;20539;-80
2022/01/14 01:38:57;;;;;;;1.53;1.00;;;;;;;;;;6289428;28;20208;-80
2022/01/14 01:42:06;;;;;;;5.67;1.27;;;;;;;;;;6288753;28;20538;-80
2022/01/14 01:45:12;;;;;;;1.30;1.20;;;;;;;;;;6289058;28;20341;-80
2022/01/14 01:48:17;;;;;;;5.67;1.20;;;;;;;;;;6271600;28;20273;-80
2022/01/14 01:51:22;;;;;;;3.23;1.30;;;;;;;;;;6288077;28;20239;-80
2022/01/14 01:54:27;;;;;;;2.73;0.97;;;;;;;;;;6289115;28;20220;-81
2022/01/14 01:57:33;;;;;;;1.10;1.10;;;;;;;;;;6288375;28;20185;-81
2022/01/14 02:00:38;;;;;;;5.80;1.17;;;;;;;;;;6287669;28;20510;-80
2022/01/14 02:03:42;;;;;;;1.00;1.00;;;;;;;;;;6287550;28;20528;-80
2022/01/14 02:06:47;;;;;;;4.93;1.27;;;;;;;;;;6287739;28;20544;-81
2022/01/14 02:09:52;;;;;;;2.30;1.10;;;;;;;;;;6288173;28;20239;-81
2022/01/14 02:12:57;;;;;;;2.43;1.20;;;;;;;;;;6288396;28;20207;-81
2022/01/14 02:16:19;;;;;;;3.60;1.40;;;;;;;;;;6287920;28;20284;-81
2022/01/14 02:19:27;;;;;;;5.03;1.40;;;;;;;;;;6288112;28;20422;-81
2022/01/14 02:22:36;;;;;;;2.60;1.03;;;;;;;;;;6288908;28;20187;-81
2022/01/14 02:25:40;;;;;;;4.60;0.87;;;;;;;;;;6287675;28;20235;-81
2022/01/14 02:28:45;;;;;;;1.13;0.73;;;;;;;;;;6293061;28;20191;-81
2022/01/14 02:31:49;;;;;;;0.63;0.63;;;;;;;;;;6292930;28;20312;-81
2022/01/14 02:34:54;;;;;;;1.23;0.70;;;;;;;;;;6292830;28;20417;-81
2022/01/14 02:38:20;;;;;;;0.57;0.57;;;;;;;;;;6293274;28;20186;-81
2022/01/14 02:41:25;;;;;;;0.50;0.50;;;;;;;;;;6292522;28;20265;-80
2022/01/14 02:44:31;;;;;;;3.97;0.90;;;;;;;;;;6291967;28;20225;-81
2022/01/14 02:47:36;;;;;;;5.40;0.70;;;;;;;;;;6292779;28;20186;-81
2022/01/14 02:50:43;;;;;;;0.70;0.70;;;;;;;;;;6291758;28;20241;-81
2022/01/14 02:53:58;;;;;;;0.70;0.70;;;;;;;;;;6293254;28;20217;-80
2022/01/14 02:57:03;;;;;;;0.70;0.70;;;;;;;;;;6291446;28;20317;-81
2022/01/14 03:00:09;;;;;;;0.60;0.60;;;;;;;;;;6249862;28;20581;-81
2022/01/14 03:03:17;;;;;;;0.50;0.50;;;;;;;;;;6267110;28;20412;-81
2022/01/14 03:06:22;;;;;;;0.60;0.60;;;;;;;;;;6267011;28;20252;-81
2022/01/14 03:09:27;;;;;;;0.60;0.60;;;;;;;;;;6267606;28;20195;-81
2022/01/14 03:12:32;;;;;;;0.50;0.50;;;;;;;;;;6267623;28;20196;-81
2022/01/14 03:15:36;;;;;;;0.80;0.80;;;;;;;;;;6249204;28;20244;-81
2022/01/14 03:18:44;;;;;;;0.63;0.63;;;;;;;;;;6267226;28;20276;-81
2022/01/14 03:21:51;;;;;;;0.70;0.70;;;;;;;;;;6266614;28;20467;-81
2022/01/14 03:28:20;;;;;;;0.70;0.70;;;;;;;;;;6266029;28;20188;-81
2022/01/14 03:31:25;;;;;;;2.33;0.70;;;;;;;;;;6265852;28;20242;-81
2022/01/14 03:34:29;;;;;;;0.60;0.60;;;;;;;;;;6265903;28;20237;-81
2022/01/14 03:37:33;;;;;;;0.83;0.63;;;;;;;;;;6266280;28;20188;-80
2022/01/14 03:40:39;;;;;;;0.70;0.70;;;;;;;;;;6265956;28;20259;-81
2022/01/14 03:43:43;;;;;;;0.60;0.60;;;;;;;;;;6266332;28;20192;-80
2022/01/14 03:46:47;;;;;;;0.70;0.70;;;;;;;;;;6265804;28;20229;-81
2022/01/14 03:49:51;;;;;;;0.70;0.70;;;;;;;;;;6264905;28;20437;-81
2022/01/14 03:52:55;;;;;;;1.00;0.90;;;;;;;;;;6266593;28;20185;-80
2022/01/14 03:56:01;;;;;;;1.07;0.70;;;;;;;;;;6265637;28;20244;-80
2022/01/14 03:59:15;;;;;;;0.60;0.60;;;;;;;;;;6265894;28;20195;-81
2022/01/14 04:02:19;;;;;;;0.70;0.70;;;;;;;;;;6265506;28;20301;-81
2022/01/14 04:05:24;;;;;;;0.63;0.63;;;;;;;;;;6264766;28;20252;-81
2022/01/14 04:08:28;;;;;;;0.60;0.60;;;;;;;;;;6266577;28;20209;-80
2022/01/14 04:11:34;;;;;;;0.73;0.73;;;;;;;;;;6264895;28;20598;-81
2022/01/14 04:18:00;;;;;;;0.73;0.70;;;;;;;;;;6265631;28;20266;-80
2022/01/14 04:21:05;;;;;;;0.70;0.70;;;;;;;;;;6264392;28;20526;-81
2022/01/14 04:24:09;;;;;;;0.60;0.60;;;;;;;;;;6265298;28;20448;-81
2022/01/14 04:27:15;;;;;;;0.60;0.60;;;;;;;;;;6265214;28;20235;-81
2022/01/14 04:30:20;;;;;;;0.70;0.70;;;;;;;;;;6265463;28;20242;-80
2022/01/14 04:33:26;;;;;;;0.50;0.50;;;;;;;;;;6265663;28;20234;-80
2022/01/14 04:36:30;;;;;;;4.03;0.70;;;;;;;;;;6264234;28;20469;-80
2022/01/14 04:39:34;;;;;;;0.70;0.70;;;;;;;;;;6263772;28;20188;-81
2022/01/14 04:42:41;;;;;;;0.70;0.70;;;;;;;;;;6265350;28;20254;-80
2022/01/14 04:46:01;;;;;;;2.27;0.63;;;;;;;;;;6263578;28;20315;-81
2022/01/14 04:49:06;;;;;;;0.77;0.77;;;;;;;;;;6264219;28;20276;-80
2022/01/14 04:52:10;;;;;;;2.67;0.90;;;;;;;;;;6263601;28;20456;-80
2022/01/14 04:55:16;;;;;;;0.87;0.87;;;;;;;;;;6263494;28;20486;-80
2022/01/14 04:58:22;;;;;;;1.30;0.90;;;;;;;;;;6270546;28;20191;-80
2022/01/14 05:01:25;;;;;;;1.60;0.83;;;;;;;;;;6287629;28;20288;-80
2022/01/14 05:04:30;;;;;;;0.60;0.60;;;;;;;;;;6288537;28;20187;-80
2022/01/14 05:07:35;;;;;;;0.60;0.60;;;;;;;;;;6289598;28;20207;-80
2022/01/14 05:11:00;;;;;;;0.60;0.60;;;;;;;;;;6288844;28;20237;-80
2022/01/14 05:14:06;;;;;;;0.73;0.73;;;;;;;;;;6288869;28;20258;-80
2022/01/14 05:17:13;;;;;;;0.90;0.90;;;;;;;;;;6287683;28;20230;-80
2022/01/14 05:20:18;;;;;;;0.80;0.80;;;;;;;;;;6288583;28;20301;-80
2022/01/14 05:23:24;;;;;;;0.80;0.80;;;;;;;;;;6288459;28;20442;-80
2022/01/14 05:26:28;;;;;;;1.13;1.13;;;;;;;;;;6289100;28;20334;-80
2022/01/14 05:29:34;;;;;;;0.60;0.60;;;;;;;;;;6269637;28;20202;-81
2022/01/14 05:32:46;;;;;;;0.80;0.80;;;;;;;;;;6288325;28;20273;-80
2022/01/14 05:35:50;;;;;;;0.93;0.60;;;;;;;;;;6264178;28;20311;-80
2022/01/14 05:38:54;;;;;;;0.90;0.90;;;;;;;;;;6264296;28;20191;-80
2022/01/14 05:42:00;;;;;;;1.20;0.90;;;;;;;;;;6262758;28;20292;-80
2022/01/14 05:45:07;;;;;;;3.40;1.10;;;;;;;;;;6288124;28;20337;-80
2022/01/14 05:48:15;;;;;;;1.40;0.80;;;;;;;;;;6287613;28;20382;-79
2022/01/14 05:51:19;;;;;;;0.80;0.80;;;;;;;;;;6287241;28;20238;-79
2022/01/14 05:54:23;;;;;;;0.80;0.80;;;;;;;;;;6289194;28;20209;-79
2022/01/14 05:57:27;;;;;;;0.70;0.70;;;;;;;;;;6289335;28;20250;-79
2022/01/14 06:00:33;;;;;;;1.33;0.80;;;;;;;;;;6290397;28;20236;-79
2022/01/14 06:03:37;;;;;;;0.70;0.70;;;;;;;;;;6294656;28;20218;-78
2022/01/14 06:06:41;;;;;;;0.80;0.80;;;;;;;;;;6293635;28;20292;-78
2022/01/14 06:09:46;;;;;;;0.70;0.70;;;;;;;;;;6292301;28;20230;-79
2022/01/14 06:12:51;;;;;;;3.20;0.90;;;;;;;;;;6293384;28;20191;-78
2022/01/14 06:15:56;;;;;;;0.80;0.80;;;;;;;;;;6292178;28;20227;-78
2022/01/14 06:19:01;;;;;;;0.77;0.77;;;;;;;;;;6274513;28;20398;-78
2022/01/14 06:22:05;;;;;;;1.23;0.90;;;;;;;;;;6291578;28;20236;-78
2022/01/14 06:25:12;;;;;;;2.40;1.27;;;;;;;;;;6291982;28;20236;-78
2022/01/14 06:28:17;;;;;;;4.43;0.90;;;;;;;;;;6292218;28;20202;-78
2022/01/14 06:31:23;;;;;;;0.90;0.90;;;;;;;;;;6291169;28;20240;-79
2022/01/14 06:34:27;;;;;;;3.30;0.90;;;;;;;;;;6292362;28;20244;-80
2022/01/14 06:37:34;;;;;;;0.90;0.90;;;;;;;;;;6292169;28;20186;-79
2022/01/14 06:40:39;;;;;;;0.70;0.70;;;;;;;;;;6290184;28;20558;-79
2022/01/14 06:43:44;;;;;;;1.80;0.97;;;;;;;;;;6291885;28;20214;-79
2022/01/14 06:46:49;;;;;;;1.00;1.00;;;;;;;;;;6291298;28;20231;-79
2022/01/14 06:49:53;;;;;;;0.70;0.70;;;;;;;;;;6292833;28;20306;-77
2022/01/14 06:52:57;;;;;;;0.70;0.70;;;;;;;;;;6296731;28;20472;-77
2022/01/14 06:56:16;;;;;;;2.10;0.80;;;;;;;;;;6297448;28;20230;-77
2022/01/14 06:59:38;;;;;;;0.80;0.80;;;;;;;;;;6289633;28;20205;-78
2022/01/14 07:02:44;;;;;;;4.60;0.90;;;;;;;;;;6290933;28;20219;-78
2022/01/14 07:05:49;;;;;;;0.70;0.70;;;;;;;;;;6290038;28;20234;-78
2022/01/14 07:08:53;;;;;;;0.80;0.80;;;;;;;;;;6290967;28;20184;-78
2022/01/14 07:11:59;;;;;;;0.67;0.67;;;;;;;;;;6288386;28;20259;-78
2022/01/14 07:15:04;;;;;;;4.00;0.60;;;;;;;;;;6289569;28;20230;-78
2022/01/14 07:18:16;;;;;;;1.00;1.00;;;;;;;;;;6289955;28;20216;-78
2022/01/14 07:21:21;;;;;;;0.70;0.70;;;;;;;;;;6289044;28;20237;-79
2022/01/14 07:24:24;;;;;;;0.80;0.80;;;;;;;;;;6289963;28;20218;-78
2022/01/14 07:27:28;;;;;;;1.27;0.63;;;;;;;;;;6289864;28;20237;-78
2022/01/14 07:30:33;;;;;;;1.90;0.90;;;;;;;;;;6289234;28;20229;-79
2022/01/14 07:33:39;;;;;;;1.47;0.80;;;;;;;;;;6289603;28;20232;-78
2022/01/14 07:36:43;;;;;;;1.00;1.00;;;;;;;;;;6309057;28;20240;-78
2022/01/14 07:39:47;;;;;;;0.90;0.90;;;;;;;;;;6314427;28;20230;-78
2022/01/14 07:42:51;;;;;;;0.73;0.73;;;;;;;;;;6315252;28;20217;-78
2022/01/14 07:45:55;;;;;;;4.53;1.17;;;;;;;;;;6314403;28;20237;-78
2022/01/14 07:49:01;;;;;;;0.90;0.90;;;;;;;;;;6313972;28;20185;-78
2022/01/14 07:52:06;;;;;;;1.00;1.00;;;;;;;;;;6314263;28;20609;-80
2022/01/14 07:55:12;;;;;;;1.37;1.03;;;;;;;;;;6314949;28;20232;-79
2022/01/14 07:58:17;;;;;;;0.90;0.90;;;;;;;;;;6305086;28;20188;-79
2022/01/14 08:01:21;;;;;;;0.90;0.90;;;;;;;;;;6288956;28;20231;-79
2022/01/14 08:04:27;;;;;;;0.97;0.97;;;;;;;;;;6288748;28;20250;-79
2022/01/14 08:07:33;;;;;;;0.90;0.90;;;;;;;;;;6288962;28;20184;-79
2022/01/14 08:10:38;;;;;;;0.90;0.90;;;;;;;;;;6288040;28;20227;-79
2022/01/14 08:13:42;;;;;;;0.70;0.70;;;;;;;;;;6289874;28;20234;-79
2022/01/14 08:16:46;;;;;;;0.83;0.83;;;;;;;;;;6288715;28;20550;-79
2022/01/14 08:19:52;;;;;;;0.80;0.80;;;;;;;;;;6288304;28;20227;-79
2022/01/14 08:22:58;;;;;;;0.77;0.77;;;;;;;;;;6288674;28;20212;-79
2022/01/14 08:26:02;;;;;;;1.13;1.00;;;;;;;;;;6288320;28;20230;-79
2022/01/14 08:29:07;;;;;;;0.77;0.73;;;;;;;;;;6289711;28;20186;-78
2022/01/14 08:32:15;;;;;;;1.73;1.07;;;;;;;;;;6288715;28;20277;-79
2022/01/14 08:35:21;;;;;;;0.90;0.90;;;;;;;;;;6287847;28;20312;-79
2022/01/14 08:38:25;;;;;;;0.97;0.90;;;;;;;;;;6289095;28;20191;-79
2022/01/14 08:41:30;;;;;;;1.00;0.93;;;;;;;;;;6288308;28;20233;-79
2022/01/14 08:44:36;;;;;;;1.00;1.00;;;;;;;;;;6288543;28;20208;-79
2022/01/14 08:47:41;;;;;;;2.90;1.30;;;;;;;;;;6289076;28;20254;-79
2022/01/14 08:50:47;;;;;;;4.10;0.80;;;;;;;;;;6288242;28;20254;-79
2022/01/14 08:53:51;;;;;;;1.03;1.00;;;;;;;;;;6289235;28;20195;-79
2022/01/14 08:56:56;;;;;;;6.13;1.17;;;;;;;;;;6287543;28;20228;-79
2022/01/14 09:00:00;;;;;;;2.80;0.90;;;;;;;;;;6310486;28;20278;-79
2022/01/14 09:03:06;;;;;;;1.97;0.90;;;;;;;;;;6314152;28;20218;-78
2022/01/14 09:06:12;;;;;;;1.30;1.03;;;;;;;;;;6315192;28;20251;-78
2022/01/14 09:09:17;;;;;;;1.53;0.67;;;;;;;;;;6299646;28;20200;-79
2022/01/14 09:12:21;;;;;;;8.37;1.20;;;;;;;;;;6317216;28;20527;-79
2022/01/14 09:15:25;;;;;;;1.00;1.00;;;;;;;;;;6290476;28;20408;-79
2022/01/14 09:18:29;;;;;;;0.90;0.83;;;;;;;;;;6292216;28;20184;-79
2022/01/14 09:21:35;;;;;;;4.43;1.33;;;;;;;;;;6292786;28;20233;-79
2022/01/14 09:24:41;;;;;;;5.67;1.10;;;;;;;;;;6293560;28;20222;-79
2022/01/14 09:27:47;;;;;;;4.53;1.10;;;;;;;;;;6317838;28;20184;-79
2022/01/14 09:30:51;;;;;;;1.00;1.00;;;;;;;;;;6317495;28;20226;-79
2022/01/14 09:33:55;;;;;;;1.40;0.60;;;;;;;;;;6318044;28;20538;-79
2022/01/14 09:37:01;;;;;;;4.80;0.87;;;;;;;;;;6315663;28;20507;-79
2022/01/14 09:40:07;;;;;;;1.77;1.07;;;;;;;;;;6316703;28;20227;-79
2022/01/14 09:43:14;;;;;;;3.67;0.87;;;;;;;;;;6318605;28;20220;-79
2022/01/14 09:46:38;;;;;;;1.17;0.73;;;;;;;;;;6316752;28;20229;-79
2022/01/14 09:49:43;;;;;;;1.20;1.10;;;;;;;;;;6299645;28;20266;-79
2022/01/14 09:52:51;;;;;;;4.13;1.00;;;;;;;;;;6318617;28;20200;-79
2022/01/14 09:55:55;;;;;;;0.90;0.90;;;;;;;;;;6318109;28;20247;-79
2022/01/14 09:59:02;;;;;;;0.80;0.80;;;;;;;;;;6304852;28;20199;-79
2022/01/14 10:02:07;;;;;;;2.23;1.00;;;;;;;;;;6276246;28;20235;-79
2022/01/14 10:05:31;;;;;;;2.20;0.87;;;;;;;;;;6286987;28;20236;-79
2022/01/14 10:08:37;;;;;;;1.10;1.00;;;;;;;;;;6268689;28;20210;-79
2022/01/14 10:11:43;;;;;;;1.20;1.00;;;;;;;;;;6286647;28;20280;-79
2022/01/14 10:14:54;;;;;;;2.10;0.97;;;;;;;;;;6292391;28;20235;-79
2022/01/14 10:18:01;;;;;;;1.17;1.07;;;;;;;;;;6293401;28;20192;-79
2022/01/14 10:21:10;;;;;;;2.57;0.80;;;;;;;;;;6291426;28;20231;-79
2022/01/14 10:24:16;;;;;;;1.00;1.00;;;;;;;;;;6292195;28;20241;-79
2022/01/14 10:27:31;;;;;;;1.57;1.10;;;;;;;;;;6292230;28;20249;-79
2022/01/14 10:30:35;;;;;;;0.97;0.80;;;;;;;;;;6291729;28;20232;-79
2022/01/14 10:33:41;;;;;;;2.93;1.00;;;;;;;;;;6292051;28;20232;-79
2022/01/14 10:36:45;;;;;;;1.03;1.03;;;;;;;;;;6291750;28;20228;-79
2022/01/14 10:39:53;;;;;;;5.10;0.93;;;;;;;;;;6291291;28;20275;-79
2022/01/14 10:43:01;;;;;;;6.90;1.13;;;;;;;;;;6291838;28;20195;-79
2022/01/14 10:46:29;;;;;;;13.07;1.10;;;;;;;;;;6291666;28;20235;-79
2022/01/14 10:49:33;;;;;;;1.00;1.00;;;;;;;;;;6277880;28;20203;-79
2022/01/14 10:52:38;;;;;;;0.87;0.87;;;;;;;;;;6295288;28;20493;-79
2022/01/14 10:55:46;;;;;;;0.60;0.60;;;;;;;;;;6295229;28;20255;-79
2022/01/14 10:58:55;;;;;;;1.77;1.03;;;;;;;;;;6295487;28;20213;-79
2022/01/14 11:01:59;;;;;;;1.13;1.03;;;;;;;;;;6294005;28;20231;-79
2022/01/14 11:05:09;;;;;;;1.03;0.97;;;;;;;;;;6294731;28;20238;-80
2022/01/14 11:08:35;;;;;;;0.93;0.90;;;;;;;;;;6294570;28;20195;-79
2022/01/14 11:11:41;;;;;;;9.47;1.00;;;;;;;;;;6293890;28;20265;-78
2022/01/14 11:14:46;;;;;;;0.50;0.50;;;;;;;;;;6291376;28;20454;-78
2022/01/14 11:17:54;;;;;;;1.27;1.17;;;;;;;;;;6291229;28;20192;-78
2022/01/14 11:24:23;;;;;;;3.10;1.20;;;;;;;;;;6291379;28;20549;-79
2022/01/14 11:27:28;;;;;;;1.50;0.83;;;;;;;;;;6292532;28;20206;-78
2022/01/14 11:30:34;;;;;;;1.17;0.77;;;;;;;;;;6280736;28;20476;-78
2022/01/14 11:33:40;;;;;;;0.90;0.90;;;;;;;;;;6267243;28;20229;-78
2022/01/14 11:36:53;;;;;;;4.57;0.90;;;;;;;;;;6267316;28;20253;-78
2022/01/14 11:39:59;;;;;;;1.50;0.80;;;;;;;;;;6266656;28;20259;-78
2022/01/14 11:43:04;;;;;;;4.33;1.03;;;;;;;;;;6267730;28;20195;-78
2022/01/14 11:46:16;;;;;;;2.90;1.00;;;;;;;;;;6267048;28;20276;-78
2022/01/14 11:49:35;;;;;;;0.87;0.87;;;;;;;;;;6268468;28;20189;-78
2022/01/14 11:52:41;;;;;;;4.23;1.10;;;;;;;;;;6293169;28;20208;-78
2022/01/14 11:55:46;;;;;;;1.03;0.90;;;;;;;;;;6292515;28;20233;-78
2022/01/14 11:58:52;;;;;;;1.30;1.00;;;;;;;;;;6293183;28;20197;-78
2022/01/14 12:01:57;;;;;;;1.67;0.67;;;;;;;;;;6292473;28;20229;-78
2022/01/14 12:05:04;;;;;;;3.03;0.83;;;;;;;;;;6292519;28;20235;-78
2022/01/14 12:08:15;;;;;;;5.70;0.90;;;;;;;;;;6292837;28;20262;-79
2022/01/14 12:11:24;;;;;;;1.23;1.00;;;;;;;;;;6292229;28;20248;-79
2022/01/14 12:14:44;;;;;;;0.73;0.73;;;;;;;;;;6293190;28;20193;-79
2022/01/14 12:17:48;;;;;;;0.70;0.70;;;;;;;;;;6292981;28;20188;-79
2022/01/14 12:20:58;;;;;;;1.20;1.00;;;;;;;;;;6292791;28;20244;-79
2022/01/14 12:24:02;;;;;;;1.37;0.80;;;;;;;;;;6293359;28;20411;-79
2022/01/14 12:27:49;;;;;;;2.07;1.10;;;;;;;;;;6293236;28;20304;-79
2022/01/14 12:31:02;;;;;;;0.90;0.90;;;;;;;;;;6287844;28;20264;-79
2022/01/14 12:34:09;;;;;;;5.00;1.07;;;;;;;;;;6293271;28;20249;-79
2022/01/14 12:37:16;;;;;;;5.60;1.20;;;;;;;;;;6293430;28;20235;-79
2022/01/14 12:40:22;;;;;;;1.07;0.97;;;;;;;;;;6292097;28;20300;-79
2022/01/14 12:43:26;;;;;;;1.13;1.00;;;;;;;;;;6292765;28;20214;-79
2022/01/14 12:46:39;;;;;;;0.90;0.90;;;;;;;;;;6292182;28;20554;-79
2022/01/14 12:49:43;;;;;;;0.80;0.80;;;;;;;;;;6290938;28;20300;-79
2022/01/14 12:52:50;;;;;;;3.30;0.90;;;;;;;;;;6291313;28;20186;-79
2022/01/14 12:55:55;;;;;;;0.83;0.70;;;;;;;;;;6289928;28;20238;-78
2022/01/14 12:59:02;;;;;;;3.70;0.83;;;;;;;;;;6306124;28;20191;-79
2022/01/14 13:02:07;;;;;;;0.90;0.90;;;;;;;;;;6315876;28;20237;-79
2022/01/14 13:05:16;;;;;;;0.80;0.80;;;;;;;;;;6315487;28;20245;-79
2022/01/14 13:08:28;;;;;;;0.80;0.80;;;;;;;;;;6316704;28;20232;-78
2022/01/14 13:11:46;;;;;;;1.67;0.97;;;;;;;;;;6314896;28;20228;-79
2022/01/14 13:14:53;;;;;;;0.80;0.80;;;;;;;;;;6316191;28;20239;-79
2022/01/14 13:18:02;;;;;;;1.20;0.83;;;;;;;;;;6317019;28;20185;-79
2022/01/14 13:21:07;;;;;;;0.80;0.80;;;;;;;;;;6297890;28;20227;-79
2022/01/14 13:24:19;;;;;;;2.27;1.00;;;;;;;;;;6315535;28;20231;-79
2022/01/14 13:27:25;;;;;;;3.13;0.70;;;;;;;;;;6290278;28;20243;-79
2022/01/14 13:30:33;;;;;;;0.97;0.97;;;;;;;;;;6289974;28;20230;-79
2022/01/14 13:33:40;;;;;;;0.73;0.73;;;;;;;;;;6289700;28;20252;-79
2022/01/14 13:36:44;;;;;;;2.10;0.90;;;;;;;;;;6289754;28;20231;-79
2022/01/14 13:40:04;;;;;;;1.10;1.00;;;;;;;;;;6290541;28;20297;-78
2022/01/14 13:43:13;;;;;;;0.80;0.80;;;;;;;;;;6290969;28;20185;-79
2022/01/14 13:46:19;;;;;;;0.87;0.87;;;;;;;;;;6290389;28;20241;-79
2022/01/14 13:49:25;;;;;;;3.53;0.97;;;;;;;;;;6271032;28;20230;-79
2022/01/14 13:52:31;;;;;;;6.47;0.87;;;;;;;;;;6289309;28;20186;-79
2022/01/14 13:55:38;;;;;;;1.10;1.10;;;;;;;;;;6289476;28;20249;-79
2022/01/14 13:58:45;;;;;;;6.73;0.97;;;;;;;;;;6289776;28;20193;-79
2022/01/14 14:01:57;;;;;;;0.63;0.63;;;;;;;;;;6289793;28;20318;-79
2022/01/14 14:05:03;;;;;;;1.00;0.93;;;;;;;;;;6289886;28;20240;-79
2022/01/14 14:08:16;;;;;;;2.83;0.87;;;;;;;;;;6290994;28;20256;-79
2022/01/14 14:18:22;;;;;;;0.70;0.70;;;;;;;;;;6290541;28;20199;-79
2022/01/14 14:21:33;;;;;;;0.87;0.70;;;;;;;;;;6290015;28;20230;-79
2022/01/14 14:24:38;;;;;;;4.43;0.70;;;;;;;;;;6295393;28;20187;-79
2022/01/14 14:27:56;;;;;;;1.60;1.50;;;;;;;;;;6296993;28;20230;-79
2022/01/14 14:31:04;;;;;;;4.90;0.90;;;;;;;;;;6299722;28;20276;-79
2022/01/14 14:34:16;;;;;;;5.40;1.33;;;;;;;;;;6299228;28;20269;-79
2022/01/14 14:37:22;;;;;;;1.43;0.83;;;;;;;;;;6299479;28;20259;-79
2022/01/14 14:40:30;;;;;;;13.50;1.13;;;;;;;;;;6281440;28;20277;-80
2022/01/14 14:43:34;;;;;;;1.60;0.83;;;;;;;;;;6298847;28;20363;-78
2022/01/14 14:46:44;;;;;;;0.60;0.60;;;;;;;;;;6281465;28;20299;-79
2022/01/14 14:49:49;;;;;;;4.23;1.00;;;;;;;;;;6279451;28;20550;-79
2022/01/14 14:52:57;;;;;;;1.50;1.07;;;;;;;;;;6300026;28;20197;-79
2022/01/14 14:56:09;;;;;;;1.03;1.00;;;;;;;;;;6280711;28;20231;-79
2022/01/14 14:59:13;;;;;;;1.60;0.70;;;;;;;;;;6298502;28;20184;-78
2022/01/14 15:02:17;;;;;;;1.30;0.87;;;;;;;;;;6280702;28;20240;-78
2022/01/14 15:05:24;;;;;;;0.80;0.80;;;;;;;;;;6279972;28;20242;-78
2022/01/14 15:08:32;;;;;;;2.67;0.80;;;;;;;;;;6298110;28;20215;-78
2022/01/14 15:11:36;;;;;;;1.60;0.80;;;;;;;;;;6297202;28;20243;-78
2022/01/14 15:14:44;;;;;;;0.70;0.70;;;;;;;;;;6296084;28;20511;-78
2022/01/14 15:21:12;;;;;;;1.00;0.90;;;;;;;;;;6297300;28;20225;-78
2022/01/14 15:24:17;;;;;;;2.23;1.10;;;;;;;;;;6280820;28;20429;-78
2022/01/14 15:27:23;;;;;;;2.13;0.80;;;;;;;;;;6297111;28;20299;-78
2022/01/14 15:30:28;;;;;;;0.83;0.83;;;;;;;;;;6297552;28;20229;-79
2022/01/14 15:33:32;;;;;;;0.97;0.97;;;;;;;;;;6297400;28;20251;-78
2022/01/14 15:36:37;;;;;;;0.83;0.83;;;;;;;;;;6279500;28;20233;-78
2022/01/14 15:39:45;;;;;;;1.13;0.80;;;;;;;;;;6278280;28;20229;-79
2022/01/14 15:42:50;;;;;;;0.70;0.70;;;;;;;;;;6296814;28;20224;-79
2022/01/14 15:45:54;;;;;;;0.83;0.83;;;;;;;;;;6296903;28;20234;-79
2022/01/14 15:48:59;;;;;;;1.00;1.00;;;;;;;;;;6279969;28;20226;-79
2022/01/14 15:52:05;;;;;;;0.73;0.73;;;;;;;;;;6280084;28;20241;-79
2022/01/14 15:55:15;;;;;;;0.87;0.87;;;;;;;;;;6297636;28;20295;-79
2022/01/14 15:58:20;;;;;;;0.80;0.80;;;;;;;;;;6296589;28;20226;-79
2022/01/14 16:01:24;;;;;;;0.93;0.70;;;;;;;;;;6297228;28;20236;-79
2022/01/14 16:04:30;;;;;;;0.90;0.80;;;;;;;;;;6295544;28;20186;-78
2022/01/14 16:07:35;;;;;;;0.90;0.90;;;;;;;;;;6295177;28;20248;-78
2022/01/14 16:10:41;;;;;;;2.07;0.80;;;;;;;;;;6297943;28;20429;-78
2022/01/14 16:13:50;;;;;;;0.80;0.80;;;;;;;;;;6297300;28;20192;-78
2022/01/14 16:16:54;;;;;;;0.80;0.80;;;;;;;;;;6296709;28;20236;-78
2022/01/14 16:19:59;;;;;;;1.07;1.00;;;;;;;;;;6278529;28;20228;-79
2022/01/14 16:23:05;;;;;;;1.00;1.00;;;;;;;;;;6296823;28;20185;-79
2022/01/14 16:26:11;;;;;;;0.77;0.77;;;;;;;;;;6296125;28;20257;-78
2022/01/14 16:29:16;;;;;;;0.77;0.77;;;;;;;;;;6295604;28;20446;-79
2022/01/14 16:32:22;;;;;;;1.07;1.07;;;;;;;;;;6296911;28;20209;-79
2022/01/14 16:35:27;;;;;;;3.63;0.90;;;;;;;;;;6275818;28;20231;-78
2022/01/14 16:38:31;;;;;;;9.80;1.07;;;;;;;;;;6288709;28;20191;-80
2022/01/14 16:41:37;;;;;;;4.63;0.90;;;;;;;;;;6287502;28;20235;-80
2022/01/14 16:44:44;;;;;;;0.80;0.80;;;;;;;;;;6287793;28;20252;-80
2022/01/14 16:47:51;;;;;;;0.87;0.87;;;;;;;;;;6272798;28;20217;-80
2022/01/14 16:50:56;;;;;;;2.23;1.20;;;;;;;;;;6291183;28;20239;-78
2022/01/14 16:54:01;;;;;;;0.97;0.97;;;;;;;;;;6286804;28;20189;-78
2022/01/14 16:57:09;;;;;;;1.50;1.50;;;;;;;;;;6291267;28;20254;-79
2022/01/14 17:00:17;;;;;;;0.90;0.90;;;;;;;;;;6303492;28;20542;-78
2022/01/14 17:03:22;;;;;;;2.50;1.00;;;;;;;;;;6319637;28;20205;-78
2022/01/14 17:06:26;;;;;;;2.00;0.70;;;;;;;;;;6316419;28;20223;-79
2022/01/14 17:09:30;;;;;;;1.70;1.00;;;;;;;;;;6315968;28;20295;-77
2022/01/14 17:12:38;;;;;;;2.87;0.80;;;;;;;;;;6318598;28;20192;-79
2022/01/14 17:15:42;;;;;;;2.43;0.80;;;;;;;;;;6316398;28;20238;-79
2022/01/14 17:18:46;;;;;;;0.93;0.77;;;;;;;;;;6315765;28;20323;-79
2022/01/14 17:21:52;;;;;;;0.70;0.70;;;;;;;;;;6319454;28;20217;-79
2022/01/14 17:24:57;;;;;;;1.30;0.90;;;;;;;;;;6289504;28;20237;-79
2022/01/14 17:28:02;;;;;;;1.60;1.00;;;;;;;;;;6290218;28;20209;-78
2022/01/14 17:31:15;;;;;;;0.90;0.90;;;;;;;;;;6293803;28;20241;-77
2022/01/14 17:34:20;;;;;;;1.03;1.03;;;;;;;;;;6283960;28;20240;-77
2022/01/14 17:37:26;;;;;;;2.00;1.00;;;;;;;;;;6322536;28;20184;-78
2022/01/14 17:40:57;;;;;;;1.10;1.10;;;;;;;;;;6282989;28;20237;-77
2022/01/14 17:44:19;;;;;;;2.83;1.00;;;;;;;;;;6294715;28;20186;-80
2022/01/14 17:47:41;;;;;;;1.17;1.10;;;;;;;;;;6274671;28;20480;-78
2022/01/14 17:50:46;;;;;;;1.70;1.00;;;;;;;;;;6248051;28;20595;-77
2022/01/14 17:53:50;;;;;;;1.17;1.17;;;;;;;;;;6291593;28;20189;-77
2022/01/14 17:56:56;;;;;;;1.00;1.00;;;;;;;;;;6291478;28;20192;-78
2022/01/14 18:00:03;;;;;;;1.30;0.90;;;;;;;;;;6305615;28;20306;-77
2022/01/14 18:03:16;;;;;;;0.93;0.90;;;;;;;;;;6324407;28;20184;-79
2022/01/14 18:06:24;;;;;;;1.30;0.87;;;;;;;;;;6322240;28;20233;-78
2022/01/14 18:09:29;;;;;;;0.97;0.90;;;;;;;;;;6323335;28;20325;-79
2022/01/14 18:12:37;;;;;;;1.50;0.93;;;;;;;;;;6305969;28;20230;-79
2022/01/14 18:15:43;;;;;;;2.33;1.00;;;;;;;;;;6323972;28;20233;-79
2022/01/14 18:18:49;;;;;;;1.83;1.00;;;;;;;;;;6318213;28;20276;-80
2022/01/14 18:21:53;;;;;;;0.70;0.70;;;;;;;;;;6323740;28;20186;-79
2022/01/14 18:24:57;;;;;;;0.90;0.90;;;;;;;;;;6321984;28;20234;-79
2022/01/14 18:28:03;;;;;;;1.13;1.00;;;;;;;;;;6322103;28;20185;-79
2022/01/14 18:31:08;;;;;;;1.00;1.00;;;;;;;;;;6320160;28;20238;-78
2022/01/14 18:34:13;;;;;;;1.00;1.00;;;;;;;;;;6319809;28;20289;-80
2022/01/14 18:37:17;;;;;;;2.43;0.90;;;;;;;;;;6321834;28;20192;-80
2022/01/14 18:40:21;;;;;;;1.03;1.00;;;;;;;;;;6321217;28;20239;-80
2022/01/14 18:43:26;;;;;;;2.53;0.70;;;;;;;;;;6321472;28;20184;-80
2022/01/14 18:46:32;;;;;;;1.07;0.97;;;;;;;;;;6321237;28;20268;-81
2022/01/14 18:49:37;;;;;;;5.20;0.90;;;;;;;;;;6321284;28;20331;-81
2022/01/14 18:52:42;;;;;;;1.23;1.00;;;;;;;;;;6306741;28;20208;-80
2022/01/14 18:55:47;;;;;;;1.93;0.90;;;;;;;;;;6305709;28;20253;-78
2022/01/14 18:58:54;;;;;;;0.87;0.87;;;;;;;;;;6320006;28;20384;-79
2022/01/14 19:02:00;;;;;;;1.00;1.00;;;;;;;;;;6317886;28;20227;-78
2022/01/14 19:05:06;;;;;;;5.47;0.73;;;;;;;;;;6316833;28;20448;-79
2022/01/14 19:08:16;;;;;;;0.80;0.80;;;;;;;;;;6315877;28;20225;-79
2022/01/14 19:11:20;;;;;;;0.90;0.90;;;;;;;;;;6317011;28;20504;-79